Terminal Aerodrome Forecast
Issued by NWS

Home | Current Version | Previous Version | Text Only | Print | Product List | Glossary On
Versions: 1 2 3 4 5 6 7 8 9 10 11 12 13 14 15 16 17 18
000
FTUS43 KAPX 210600 AAA
TAFPLN
TAF AMD
KPLN 210635Z 2107/2206 30005KT P6SM OVC012
     FM210900 35004KT 4SM BR VCSH OVC015
     FM211400 35012G21KT P6SM OVC025
     FM220000 33008KT P6SM BKN040=

USA.gov is the U.S. government's official web portal to all federal, state and local government web resources and services.